createdAt,value
2022-10-18T00:04:50.486Z,31.15
2022-10-18T00:09:44.410Z,32.50
2022-10-18T00:14:37.899Z,31.90
2022-10-18T00:19:32.187Z,31.55
2022-10-18T00:24:26.330Z,32.65
2022-10-18T00:29:20.925Z,32.35
2022-10-18T00:34:15.845Z,30.80
2022-10-18T00:39:11.449Z,29.35
2022-10-18T00:44:12.212Z,31.30
2022-10-18T00:49:23.529Z,30.33
2022-10-18T00:54:17.449Z,33.97
2022-10-18T00:59:11.459Z,35.67
2022-10-18T01:04:04.886Z,34.80
2022-10-18T01:09:14.556Z,35.15
2022-10-18T01:14:13.307Z,33.75
2022-10-18T01:19:26.939Z,32.88
2022-10-18T01:24:43.020Z,31.90
2022-10-18T01:30:17.980Z,32.72
2022-10-18T01:35:16.436Z,31.77
2022-10-18T01:40:11.748Z,33.08
2022-10-18T01:45:08.633Z,32.55
2022-10-18T01:50:05.443Z,33.30
2022-10-18T01:54:59.841Z,33.70
2022-10-18T02:00:04.920Z,32.60
2022-10-18T02:05:15.671Z,33.60
2022-10-18T02:10:12.339Z,32.67
2022-10-18T02:15:07.001Z,32.20
2022-10-18T02:20:03.132Z,32.88
2022-10-18T02:24:58.079Z,32.05
2022-10-18T02:29:51.680Z,30.65
2022-10-18T02:34:52.128Z,29.70
2022-10-18T02:39:47.889Z,30.38
2022-10-18T02:44:41.196Z,31.27
2022-10-18T02:49:35.166Z,30.15
2022-10-18T02:54:28.871Z,31.10
2022-10-18T02:59:23.353Z,32.40
2022-10-18T03:04:17.588Z,32.45
2022-10-18T03:09:10.941Z,31.48
2022-10-18T03:18:58.470Z,29.42
2022-10-18T03:23:52.981Z,29.67
2022-10-18T03:28:46.339Z,29.75
2022-10-18T03:33:39.101Z,31.23
2022-10-18T03:38:32.156Z,32.28
2022-10-18T03:43:25.883Z,32.80
2022-10-18T03:48:21.449Z,32.47
2022-10-18T03:53:15.091Z,31.90
2022-10-18T03:58:10.593Z,32.38
2022-10-18T04:03:04.245Z,31.42
2022-10-18T04:07:59.266Z,31.05
2022-10-18T04:12:53.701Z,29.00
2022-10-18T04:17:47.283Z,28.33
2022-10-18T04:27:34.909Z,28.02
2022-10-18T04:32:30.198Z,26.52
2022-10-18T04:37:23.248Z,27.67
2022-10-18T04:42:17.365Z,28.35
2022-10-18T04:47:11.075Z,28.88
2022-10-18T04:52:05.046Z,28.25
2022-10-18T04:56:59.525Z,27.40
2022-10-18T05:01:53.040Z,25.02
2022-10-18T05:11:40.501Z,23.60
2022-10-18T05:16:34.305Z,25.25
2022-10-18T05:21:27.875Z,24.95
2022-10-18T05:26:22.017Z,25.77
2022-10-18T05:31:15.749Z,26.63
2022-10-18T05:36:09.817Z,23.50
2022-10-18T05:41:05.944Z,25.02
2022-10-18T05:45:58.957Z,24.38
2022-10-18T05:50:52.715Z,24.55
2022-10-18T05:55:46.633Z,24.20
2022-10-18T06:00:40.760Z,24.60
2022-10-18T06:05:33.804Z,24.02
2022-10-18T06:10:27.387Z,24.55
2022-10-18T06:15:25.302Z,25.45
2022-10-18T06:20:20.248Z,24.95
2022-10-18T06:25:14.566Z,24.70
2022-10-18T06:30:11.015Z,23.95
2022-10-18T06:35:06.206Z,24.52
2022-10-18T06:39:59.909Z,25.15
2022-10-18T06:44:54.242Z,24.38
2022-10-18T06:49:48.292Z,23.70
2022-10-18T06:54:43.523Z,23.35
2022-10-18T06:59:39.743Z,24.67
2022-10-18T07:04:34.186Z,24.23
2022-10-18T07:09:28.410Z,24.67
2022-10-18T07:14:24.722Z,23.52
2022-10-18T07:19:22.778Z,23.52
2022-10-18T07:24:17.400Z,23.55
2022-10-18T07:29:12.698Z,23.75
2022-10-18T07:34:10.982Z,22.63
2022-10-18T07:39:05.201Z,24.80
2022-10-18T07:43:58.368Z,26.00
2022-10-18T07:48:52.653Z,24.15
2022-10-18T07:53:46.161Z,24.83
2022-10-18T07:58:40.568Z,25.63
2022-10-18T08:03:33.884Z,25.17
2022-10-18T08:08:29.400Z,25.58
2022-10-18T08:13:24.632Z,24.75
2022-10-18T08:18:18.848Z,27.45
2022-10-18T08:23:12.920Z,28.20
2022-10-18T08:28:07.898Z,30.35
2022-10-18T08:33:02.121Z,30.63
2022-10-18T08:37:56.430Z,30.83
2022-10-18T08:42:49.817Z,30.48
2022-10-18T08:47:45.847Z,30.92
2022-10-18T08:53:06.919Z,34.08
2022-10-18T08:58:01.824Z,32.80
2022-10-18T09:02:55.234Z,32.90
2022-10-18T09:07:52.197Z,32.55
2022-10-18T09:13:19.001Z,33.70
2022-10-18T09:18:29.878Z,33.00
2022-10-18T09:23:51.736Z,33.30
2022-10-18T09:28:56.511Z,33.70
2022-10-18T09:33:59.261Z,33.28
2022-10-18T09:38:58.651Z,35.63
2022-10-18T09:43:57.931Z,35.78
2022-10-18T09:48:56.602Z,35.17
2022-10-18T09:54:33.779Z,36.38
2022-10-18T09:59:56.372Z,35.83
2022-10-18T10:04:50.027Z,38.60
2022-10-18T10:10:14.773Z,39.90
2022-10-18T10:15:21.630Z,40.42
2022-10-18T10:20:26.965Z,39.13
2022-10-18T10:25:28.988Z,39.95
2022-10-18T10:30:31.861Z,39.97
2022-10-18T10:35:53.190Z,39.20
2022-10-18T10:40:52.946Z,39.63
2022-10-18T10:46:06.557Z,39.45
2022-10-18T10:55:55.960Z,42.22
2022-10-18T11:00:48.823Z,42.90
2022-10-18T11:05:46.589Z,42.33
2022-10-18T11:11:05.332Z,42.33
2022-10-18T11:16:05.620Z,40.15
2022-10-18T11:21:18.037Z,40.85
2022-10-18T11:26:13.469Z,44.15
2022-10-18T11:31:45.114Z,43.95
2022-10-18T11:37:09.678Z,40.67
2022-10-18T11:42:18.123Z,41.28
2022-10-18T11:47:59.548Z,40.80
2022-10-18T11:53:30.157Z,38.50
2022-10-18T11:58:54.844Z,38.42
2022-10-18T12:03:59.220Z,41.85
2022-10-18T12:09:16.060Z,41.15
2022-10-18T12:14:21.083Z,39.22
2022-10-18T12:19:25.164Z,38.00
2022-10-18T12:24:29.300Z,34.13
2022-10-18T12:29:29.291Z,32.17
2022-10-18T12:34:22.712Z,36.38
2022-10-18T12:39:37.672Z,35.90
2022-10-18T12:44:37.614Z,32.40
2022-10-18T12:49:44.028Z,34.60
2022-10-18T12:54:40.291Z,34.90
2022-10-18T12:59:33.089Z,32.58
2022-10-18T13:04:29.198Z,36.75
2022-10-18T13:09:22.404Z,37.35
2022-10-18T13:14:29.957Z,37.78
2022-10-18T13:19:47.208Z,39.08
2022-10-18T13:25:02.668Z,37.00
2022-10-18T13:30:08.806Z,38.90
2022-10-18T13:35:03.360Z,36.70
2022-10-18T13:40:18.041Z,40.70
2022-10-18T13:45:33.180Z,37.90
2022-10-18T13:50:37.131Z,38.72
2022-10-18T13:56:17.508Z,41.03
2022-10-18T14:01:37.665Z,41.25
2022-10-18T14:06:38.265Z,43.28
2022-10-18T14:11:45.390Z,37.08
2022-10-18T14:17:07.646Z,38.60
2022-10-18T14:22:17.531Z,37.22
2022-10-18T14:27:21.067Z,42.88
2022-10-18T14:32:37.677Z,42.08
2022-10-18T14:37:37.036Z,40.67
2022-10-18T14:42:31.675Z,39.28
2022-10-18T14:47:27.738Z,39.80
2022-10-18T14:52:35.856Z,39.20
2022-10-18T14:58:08.555Z,38.97
2022-10-18T15:08:00.691Z,37.72
2022-10-18T15:13:09.625Z,39.97
2022-10-18T15:18:06.977Z,39.28
2022-10-18T15:23:27.278Z,39.13
2022-10-18T15:28:53.716Z,39.03
2022-10-18T15:33:49.906Z,39.67
2022-10-18T15:38:52.709Z,38.35
2022-10-18T15:43:57.973Z,39.58
2022-10-18T15:48:56.875Z,39.17
2022-10-18T15:53:54.646Z,41.17
2022-10-18T15:59:42.554Z,41.25
2022-10-18T16:04:41.102Z,38.92
2022-10-18T16:09:42.769Z,38.70
2022-10-18T16:14:41.610Z,40.65
2022-10-18T16:19:37.382Z,39.97
2022-10-18T16:24:37.016Z,36.72
2022-10-18T16:29:36.837Z,38.58
2022-10-18T16:34:36.001Z,40.85
2022-10-18T16:39:35.847Z,39.50
2022-10-18T16:44:34.317Z,41.67
2022-10-18T16:49:37.365Z,39.33
2022-10-18T16:54:36.079Z,39.92
2022-10-18T16:59:35.694Z,37.65
2022-10-18T17:04:41.886Z,36.60
2022-10-18T17:09:42.641Z,41.20
2022-10-18T17:14:41.266Z,40.22
2022-10-18T17:19:43.600Z,40.88
2022-10-18T17:24:40.787Z,40.65
2022-10-18T17:29:46.656Z,38.03
2022-10-18T17:34:51.962Z,34.72
2022-10-18T17:39:52.390Z,36.25
2022-10-18T17:44:57.085Z,36.97
2022-10-18T17:49:56.294Z,38.78
2022-10-18T17:54:56.024Z,37.83
2022-10-18T17:59:56.008Z,37.88
2022-10-18T18:04:53.606Z,38.30
2022-10-18T18:09:51.512Z,37.55
2022-10-18T18:14:50.831Z,38.13
2022-10-18T18:19:54.021Z,37.67
2022-10-18T18:24:57.045Z,37.17
2022-10-18T18:30:00.076Z,40.15
2022-10-18T18:34:57.097Z,39.85
2022-10-18T18:39:52.604Z,40.75
2022-10-18T18:44:52.235Z,40.92
2022-10-18T18:49:48.295Z,41.35
2022-10-18T18:54:43.028Z,39.97
2022-10-18T18:59:40.748Z,42.35
2022-10-18T19:04:37.870Z,43.25
2022-10-18T19:09:33.394Z,42.35
2022-10-18T19:14:30.204Z,41.40
2022-10-18T19:19:28.846Z,44.58
2022-10-18T19:24:24.446Z,42.80
2022-10-18T19:29:20.311Z,41.53
2022-10-18T19:34:15.000Z,40.72
2022-10-18T19:39:10.111Z,42.40
2022-10-18T19:44:04.995Z,42.75
2022-10-18T19:48:58.914Z,42.97
2022-10-18T19:53:52.499Z,39.97
2022-10-18T19:58:47.617Z,40.00
2022-10-18T20:03:45.088Z,40.08
2022-10-18T20:08:39.735Z,43.58
2022-10-18T20:13:34.209Z,44.10
2022-10-18T20:18:27.577Z,45.90
2022-10-18T20:23:21.711Z,46.33
2022-10-18T20:28:15.784Z,46.90
2022-10-18T20:33:11.990Z,48.05
2022-10-18T20:38:13.780Z,49.65
2022-10-18T20:43:13.637Z,52.97
2022-10-18T20:48:10.695Z,50.67
2022-10-18T20:53:05.938Z,49.03
2022-10-18T20:58:02.637Z,48.80
2022-10-18T21:03:03.026Z,48.28
2022-10-18T21:07:58.229Z,48.10
2022-10-18T21:12:55.845Z,50.67
2022-10-18T21:17:55.763Z,50.88
2022-10-18T21:22:55.323Z,49.30
2022-10-18T21:27:51.862Z,47.85
2022-10-18T21:32:49.271Z,48.60
2022-10-18T21:37:44.989Z,46.97
2022-10-18T21:42:43.993Z,45.58
2022-10-18T21:47:39.680Z,45.25
2022-10-18T21:52:34.975Z,46.67
2022-10-18T21:57:38.428Z,44.20
2022-10-18T22:02:34.612Z,44.95
2022-10-18T22:07:34.339Z,43.20
2022-10-18T22:12:35.238Z,44.45
2022-10-18T22:17:38.293Z,43.10
2022-10-18T22:22:38.522Z,42.75
2022-10-18T22:27:53.557Z,42.22
2022-10-18T22:32:53.488Z,42.45
2022-10-18T22:37:53.352Z,41.33
2022-10-18T22:42:48.366Z,41.50
2022-10-18T22:47:45.768Z,38.95
2022-10-18T22:52:39.781Z,37.90
2022-10-18T22:57:42.762Z,38.80
2022-10-18T23:02:41.057Z,37.73
2022-10-18T23:07:42.175Z,38.85
2022-10-18T23:12:46.078Z,36.85
2022-10-18T23:17:45.377Z,37.00
2022-10-18T23:22:45.731Z,37.08
2022-10-18T23:32:51.830Z,35.53
2022-10-18T23:37:57.373Z,36.47
2022-10-18T23:42:55.414Z,33.97
2022-10-18T23:47:54.358Z,34.90
2022-10-18T23:52:52.381Z,35.15
2022-10-18T23:57:52.822Z,32.70
